地図

経路データ

SID SEASON NUMBER BASIN SUBBASIN NAME ISO_TIME NATURE LAT LON WMO_WIND WMO_PRES WMO_AGENCY TRACK_TYPE DIST2LAND LANDFALL IFLAG USA_AGENCY USA_ATCF_ID USA_LAT USA_LON USA_RECORD USA_STATUS USA_WIND USA_PRES USA_SSHS USA_R34_NE USA_R34_SE USA_R34_SW USA_R34_NW USA_R50_NE USA_R50_SE USA_R50_SW USA_R50_NW USA_R64_NE USA_R64_SE USA_R64_SW USA_R64_NW USA_POCI USA_ROCI USA_RMW USA_EYE TOKYO_LAT TOKYO_LON TOKYO_GRADE TOKYO_WIND TOKYO_PRES TOKYO_R50_DIR TOKYO_R50_LONG TOKYO_R50_SHORT TOKYO_R30_DIR TOKYO_R30_LONG TOKYO_R30_SHORT TOKYO_LAND CMA_LAT CMA_LON CMA_CAT CMA_WIND CMA_PRES HKO_LAT HKO_LON HKO_CAT HKO_WIND HKO_PRES NEWDELHI_LAT NEWDELHI_LON NEWDELHI_GRADE NEWDELHI_WIND NEWDELHI_PRES NEWDELHI_CI NEWDELHI_DP NEWDELHI_POCI REUNION_LAT REUNION_LON REUNION_TYPE REUNION_WIND REUNION_PRES REUNION_TNUM REUNION_CI REUNION_RMW REUNION_R34_NE REUNION_R34_SE REUNION_R34_SW REUNION_R34_NW REUNION_R50_NE REUNION_R50_SE REUNION_R50_SW REUNION_R50_NW REUNION_R64_NE REUNION_R64_SE REUNION_R64_SW REUNION_R64_NW BOM_LAT BOM_LON BOM_TYPE BOM_WIND BOM_PRES BOM_TNUM BOM_CI BOM_RMW BOM_R34_NE BOM_R34_SE BOM_R34_SW BOM_R34_NW BOM_R50_NE BOM_R50_SE BOM_R50_SW BOM_R50_NW BOM_R64_NE BOM_R64_SE BOM_R64_SW BOM_R64_NW BOM_ROCI BOM_POCI BOM_EYE BOM_POS_METHOD BOM_PRES_METHOD NADI_LAT NADI_LON NADI_CAT NADI_WIND NADI_PRES WELLINGTON_LAT WELLINGTON_LON WELLINGTON_WIND WELLINGTON_PRES DS824_LAT DS824_LON DS824_STAGE DS824_WIND DS824_PRES TD9636_LAT TD9636_LON TD9636_STAGE TD9636_WIND TD9636_PRES TD9635_LAT TD9635_LON TD9635_WIND TD9635_PRES TD9635_ROCI NEUMANN_LAT NEUMANN_LON NEUMANN_CLASS NEUMANN_WIND NEUMANN_PRES MLC_LAT MLC_LON MLC_CLASS MLC_WIND MLC_PRES USA_GUST BOM_GUST BOM_GUST_PER REUNION_GUST REUNION_GUST_PER USA_SEAHGT USA_SEARAD_NE USA_SEARAD_SE USA_SEARAD_SW USA_SEARAD_NW STORM_SPEED STORM_DIR
1980238N16328 1980 66 NA NA NOT_NAMED 1980-08-25 00:00:00 TS 15.9000 -31.6000 20 hurdat_atl main 1518 1518 O_____________ hurdat_atl AL081980 15.9000 -31.6000 TD 20 -1 25 268
1980238N16328 1980 66 NA NA NOT_NAMED 1980-08-25 03:00:00 TS 15.8525 -32.9177 main 1657 1657 P_____________ AL081980 15.8525 -32.9177 TD 22 -1 23 268
1980238N16328 1980 66 NA NA NOT_NAMED 1980-08-25 06:00:00 TS 15.8000 -34.0000 25 hurdat_atl main 1774 1774 O_____________ hurdat_atl AL081980 15.8000 -34.0000 TD 25 -1 17 267
1980238N16328 1980 66 NA NA NOT_NAMED 1980-08-25 09:00:00 TS 15.7486 -34.7098 main 1849 1849 P_____________ AL081980 15.7486 -34.7098 TD 25 -1 13 265
1980238N16328 1980 66 NA NA NOT_NAMED 1980-08-25 12:00:00 TS 15.7000 -35.3000 25 hurdat_atl main 1913 1913 O_____________ hurdat_atl AL081980 15.7000 -35.3000 TD 25 -1 13 266
1980238N16328 1980 66 NA NA NOT_NAMED 1980-08-25 15:00:00 TS 15.6501 -36.0925 main 1999 1999 P_____________ AL081980 15.6501 -36.0925 TD 25 -1 15 266
1980238N16328 1980 66 NA NA NOT_NAMED 1980-08-25 18:00:00 TS 15.6000 -36.9000 25 hurdat_atl main 2020 1961 O_____________ hurdat_atl AL081980 15.6000 -36.9000 TD 25 -1 15 266
1980238N16328 1980 66 NA NA NOT_NAMED 1980-08-25 21:00:00 TS 15.5496 -37.6074 main 1954 1896 P_____________ AL081980 15.5496 -37.6074 TD 25 -1 14 266
1980238N16328 1980 66 NA NA NOT_NAMED 1980-08-26 00:00:00 TS 15.5000 -38.3000 25 hurdat_atl main 1896 1832 O_____________ hurdat_atl AL081980 15.5000 -38.3000 TD 25 -1 14 266
1980238N16328 1980 66 NA NA NOT_NAMED 1980-08-26 03:00:00 TS 15.4425 -39.0650 main 1824 1769 P_____________ AL081980 15.4425 -39.0650 TD 25 -1 15 266
1980238N16328 1980 66 NA NA NOT_NAMED 1980-08-26 06:00:00 TS 15.4000 -39.8000 25 hurdat_atl main 1769 1730 O_____________ hurdat_atl AL081980 15.4000 -39.8000 TD 25 -1 13 268
1980238N16328 1980 66 NA NA NOT_NAMED 1980-08-26 09:00:00 TS 15.3990 -40.3624 main 1723 1678 P_____________ AL081980 15.3990 -40.3624 TD 25 -1 12 270
1980238N16328 1980 66 NA NA NOT_NAMED 1980-08-26 12:00:00 TS 15.4000 -41.0000 25 hurdat_atl main 1678 1605 O_____________ hurdat_atl AL081980 15.4000 -41.0000 TD 25 -1 15 268
1980238N16328 1980 66 NA NA NOT_NAMED 1980-08-26 15:00:00 TS 15.3428 -41.9478 main 1605 1537 P_____________ AL081980 15.3428 -41.9478 TD 27 -1 19 267
1980238N16328 1980 66 NA NA NOT_NAMED 1980-08-26 18:00:00 TS 15.3000 -43.0000 30 hurdat_atl main 1530 1474 O_____________ hurdat_atl AL081980 15.3000 -43.0000 TD 30 -1 19 269
1980238N16328 1980 66 NA NA NOT_NAMED 1980-08-26 21:00:00 TS 15.3120 -43.9576 main 1468 1425 P_____________ AL081980 15.3120 -43.9576 TD 30 -1 18 273
1980238N16328 1980 66 NA NA NOT_NAMED 1980-08-27 00:00:00 TS 15.4000 -44.9000 30 hurdat_atl main 1419 1381 O_____________ hurdat_atl AL081980 15.4000 -44.9000 TD 30 -1 18 279
1980238N16328 1980 66 NA NA NOT_NAMED 1980-08-27 03:00:00 TS 15.5920 -45.8422 main 1381 1350 P_____________ AL081980 15.5920 -45.8422 TD 30 -1 19 282
1980238N16328 1980 66 NA NA NOT_NAMED 1980-08-27 06:00:00 TS 15.8000 -46.8000 30 hurdat_atl main 1345 1311 O_____________ hurdat_atl AL081980 15.8000 -46.8000 TD 30 -1 19 279
1980238N16328 1980 66 NA NA NOT_NAMED 1980-08-27 09:00:00 TS 15.8771 -47.7934 main 1306 1276 P_____________ AL081980 15.8771 -47.7934 TD 30 -1 19 276
1980238N16328 1980 66 NA NA NOT_NAMED 1980-08-27 12:00:00 TS 16.0000 -48.8000 30 hurdat_atl main 1275 1253 O_____________ hurdat_atl AL081980 16.0000 -48.8000 TD 30 -1 20 282
1980238N16328 1980 66 NA NA NOT_NAMED 1980-08-27 15:00:00 TS 16.2822 -49.8077 main 1259 1251 P_____________ AL081980 16.2822 -49.8077 TD 30 -1 20 290
1980238N16328 1980 66 NA NA NOT_NAMED 1980-08-27 18:00:00 TS 16.7000 -50.8000 30 hurdat_atl main 1264 1239 O_____________ hurdat_atl AL081980 16.7000 -50.8000 TD 30 -1 21 296
1980238N16328 1980 66 NA NA NOT_NAMED 1980-08-27 21:00:00 TS 17.2123 -51.7801 main 1230 1196 P_____________ AL081980 17.2123 -51.7801 TD 30 -1 21 301
1980238N16328 1980 66 NA NA NOT_NAMED 1980-08-28 00:00:00 TS 17.8000 -52.7000 30 hurdat_atl main 1196 1172 O_____________ hurdat_atl AL081980 17.8000 -52.7000 TD 30 -1 20 305
1980238N16328 1980 66 NA NA NOT_NAMED 1980-08-28 03:00:00 TS 18.3693 -53.5161 main 1180 1168 P_____________ AL081980 18.3693 -53.5161 TD 30 -1 19 308
1980238N16328 1980 66 NA NA NOT_NAMED 1980-08-28 06:00:00 TS 19.0000 -54.3000 30 hurdat_atl main 1175 1112 O_____________ hurdat_atl AL081980 19.0000 -54.3000 TD 30 -1 20 312
1980238N16328 1980 66 NA NA NOT_NAMED 1980-08-28 09:00:00 TS 19.7269 -55.1208 main 1112 1041 P_____________ AL081980 19.7269 -55.1208 TD 27 -1 22 313
1980238N16328 1980 66 NA NA NOT_NAMED 1980-08-28 12:00:00 TS 20.5000 -56.0000 25 hurdat_atl main 1033 962 O_____________ hurdat_atl AL081980 20.5000 -56.0000 TD 25 -1 24 313
1980238N16328 1980 66 NA NA NOT_NAMED 1980-08-28 15:00:00 TS 21.3248 -56.9766 main 955 893 P_____________ AL081980 21.3248 -56.9766 TD 25 -1 24 309
1980238N16328 1980 66 NA NA NOT_NAMED 1980-08-28 18:00:00 TS 22.0000 -58.0000 25 hurdat_atl main 889 814 O_____________ hurdat_atl AL081980 22.0000 -58.0000 TD 25 -1 21 299
1980238N16328 1980 66 NA NA NOT_NAMED 1980-08-28 21:00:00 TS 22.3510 -59.0083 main 820 750 P_____________ AL081980 22.3510 -59.0083 TD 22 -1 19 285
1980238N16328 1980 66 NA NA NOT_NAMED 1980-08-29 00:00:00 TS 22.5000 -60.0000 20 hurdat_atl main 741 O_____________ hurdat_atl AL081980 22.5000 -60.0000 TD 20 -1 19 279

IBTrACS Databaseについて

本データベースは、米国NOAAが公開する1842年以降の世界の熱帯低気圧のベストトラックデータアーカイブInternational Best Track Archive for Climate Stewardship (IBTrACS)を、ウェブで閲覧しやすい形式に変換したものです。

最終更新日:2021-11-26